createdAt,value
2019-03-09T00:00:00.918Z,0.59
2019-03-09T00:02:00.815Z,1.21
2019-03-09T00:04:00.974Z,0.71
2019-03-09T00:06:01.061Z,1.07
2019-03-09T00:08:01.039Z,1.04
2019-03-09T00:10:01.492Z,0.57
2019-03-09T00:12:01.281Z,1.05
2019-03-09T00:14:00.787Z,0.59
2019-03-09T00:16:00.895Z,1.01
2019-03-09T00:18:01.046Z,0.09
2019-03-09T00:20:01.141Z,1.00
2019-03-09T00:22:01.127Z,0.38
2019-03-09T00:24:01.055Z,0.23
2019-03-09T00:26:01.150Z,1.14
2019-03-09T00:28:01.575Z,0.57
2019-03-09T00:30:01.076Z,1.48
2019-03-09T00:32:01.105Z,0.39
2019-03-09T00:34:01.140Z,0.23
2019-03-09T00:36:01.426Z,0.13
2019-03-09T00:38:01.022Z,0.00
2019-03-09T00:40:01.093Z,0.51
2019-03-09T00:42:01.144Z,0.80
2019-03-09T00:44:01.061Z,1.52
2019-03-09T00:46:01.168Z,0.99
2019-03-09T00:48:01.077Z,0.77
2019-03-09T00:50:01.195Z,0.50
2019-03-09T00:52:00.900Z,0.77
2019-03-09T00:54:00.909Z,1.40
2019-03-09T00:56:01.025Z,0.93
2019-03-09T00:58:01.080Z,0.71
2019-03-09T01:00:01.043Z,1.21
2019-03-09T01:02:01.159Z,0.43
2019-03-09T01:04:01.173Z,0.71
2019-03-09T01:06:01.186Z,0.60
2019-03-09T01:08:01.282Z,0.64
2019-03-09T01:10:01.006Z,0.69
2019-03-09T01:12:01.220Z,0.28
2019-03-09T01:14:01.130Z,0.16
2019-03-09T01:16:01.199Z,1.30
2019-03-09T01:18:01.138Z,0.63
2019-03-09T01:20:01.122Z,0.97
2019-03-09T01:22:01.281Z,1.21
2019-03-09T01:24:01.105Z,1.28
2019-03-09T01:26:00.994Z,1.24
2019-03-09T01:28:01.217Z,2.04
2019-03-09T01:30:01.225Z,1.29
2019-03-09T01:32:01.227Z,2.63
2019-03-09T01:34:01.291Z,3.04
2019-03-09T01:36:01.359Z,2.38
2019-03-09T01:38:01.167Z,2.77
2019-03-09T01:40:01.386Z,3.36
2019-03-09T01:42:01.185Z,2.81
2019-03-09T01:44:00.987Z,3.13
2019-03-09T01:46:00.887Z,2.30
2019-03-09T01:48:01.092Z,3.06
2019-03-09T01:50:01.031Z,2.06
2019-03-09T01:52:01.253Z,3.09
2019-03-09T01:54:01.121Z,3.52
2019-03-09T01:56:01.168Z,3.19
2019-03-09T01:58:01.377Z,3.18
2019-03-09T02:00:01.033Z,2.89
2019-03-09T02:02:01.176Z,2.90
2019-03-09T02:04:01.073Z,3.41
2019-03-09T02:06:01.120Z,2.85
2019-03-09T02:08:01.131Z,3.38
2019-03-09T02:10:01.027Z,2.78
2019-03-09T02:12:01.158Z,2.94
2019-03-09T02:14:01.165Z,1.81
2019-03-09T02:16:01.047Z,3.06
2019-03-09T02:18:01.382Z,4.01
2019-03-09T02:20:01.430Z,3.66
2019-03-09T02:22:01.124Z,3.75
2019-03-09T02:24:01.228Z,3.19
2019-03-09T02:26:01.240Z,3.02
2019-03-09T02:28:01.457Z,3.22
2019-03-09T02:30:01.183Z,3.45
2019-03-09T02:32:01.595Z,3.80
2019-03-09T02:34:00.927Z,3.61
2019-03-09T02:36:01.191Z,3.50
2019-03-09T02:38:01.207Z,2.51
2019-03-09T02:40:01.213Z,2.93
2019-03-09T02:42:01.231Z,3.60
2019-03-09T02:44:01.039Z,2.94
2019-03-09T02:46:01.286Z,3.89
2019-03-09T02:48:01.470Z,2.96
2019-03-09T02:50:01.277Z,4.13
2019-03-09T02:52:01.244Z,3.39
2019-03-09T02:54:01.501Z,3.47
2019-03-09T02:56:01.317Z,2.47
2019-03-09T02:58:01.318Z,3.11
2019-03-09T03:00:01.774Z,4.47
2019-03-09T03:02:01.117Z,3.42
2019-03-09T03:04:01.214Z,3.97
2019-03-09T03:06:01.204Z,2.95
2019-03-09T03:08:01.278Z,4.72
2019-03-09T03:10:01.292Z,3.54
2019-03-09T03:12:01.300Z,3.22
2019-03-09T03:14:01.202Z,2.67
2019-03-09T03:16:01.330Z,2.94
2019-03-09T03:18:01.235Z,2.70
2019-03-09T03:20:01.552Z,2.79
2019-03-09T03:22:01.301Z,3.61
2019-03-09T03:24:01.162Z,3.91
2019-03-09T03:26:01.283Z,3.08
2019-03-09T03:28:01.295Z,3.09
2019-03-09T03:30:01.358Z,3.38
2019-03-09T03:32:01.323Z,2.72
2019-03-09T03:34:01.532Z,3.46
2019-03-09T03:36:01.114Z,3.14
2019-03-09T03:38:01.374Z,2.67
2019-03-09T03:40:01.258Z,3.32
2019-03-09T03:42:01.419Z,2.91
2019-03-09T03:44:01.585Z,1.72
2019-03-09T03:46:01.189Z,2.69
2019-03-09T03:48:01.349Z,2.32
2019-03-09T03:50:01.620Z,3.11
2019-03-09T03:52:01.346Z,2.73
2019-03-09T03:54:01.237Z,4.26
2019-03-09T03:56:00.986Z,4.02
2019-03-09T03:58:01.267Z,5.15
2019-03-09T04:00:01.376Z,4.38
2019-03-09T04:02:01.395Z,4.17
2019-03-09T04:04:01.826Z,3.98
2019-03-09T04:06:01.416Z,4.12
2019-03-09T04:08:01.314Z,5.28
2019-03-09T04:10:01.326Z,4.56
2019-03-09T04:12:01.339Z,5.29
2019-03-09T04:14:01.570Z,4.91
2019-03-09T04:16:01.163Z,4.19
2019-03-09T04:18:01.269Z,5.06
2019-03-09T04:20:01.295Z,7.10
2019-03-09T04:22:01.089Z,5.41
2019-03-09T04:24:01.325Z,4.91
2019-03-09T04:26:01.424Z,4.41
2019-03-09T04:28:01.577Z,4.19
2019-03-09T04:30:01.646Z,5.36
2019-03-09T04:32:01.389Z,5.16
2019-03-09T04:34:01.110Z,3.52
2019-03-09T04:36:01.231Z,7.58
2019-03-09T04:38:01.087Z,5.73
2019-03-09T04:40:01.120Z,5.50
2019-03-09T04:42:01.307Z,5.62
2019-03-09T04:44:01.254Z,5.16
2019-03-09T04:46:01.495Z,5.76
2019-03-09T04:48:01.356Z,5.56
2019-03-09T04:50:01.360Z,3.98
2019-03-09T04:52:01.424Z,5.54
2019-03-09T04:54:01.379Z,4.46
2019-03-09T04:56:01.292Z,5.69
2019-03-09T04:58:01.097Z,5.41
2019-03-09T05:00:01.314Z,4.30
2019-03-09T05:02:01.426Z,5.41
2019-03-09T05:04:01.162Z,5.37
2019-03-09T05:06:01.345Z,5.62
2019-03-09T05:08:01.339Z,5.65
2019-03-09T05:10:01.175Z,4.63
2019-03-09T05:12:01.489Z,4.84
2019-03-09T05:14:01.599Z,4.52
2019-03-09T05:16:01.391Z,4.81
2019-03-09T05:18:01.628Z,5.31
2019-03-09T05:20:01.431Z,4.01
2019-03-09T05:22:01.214Z,4.47
2019-03-09T05:24:01.326Z,4.45
2019-03-09T05:26:01.363Z,4.71
2019-03-09T05:28:01.237Z,3.99
2019-03-09T05:30:01.203Z,3.27
2019-03-09T05:32:01.194Z,4.63
2019-03-09T05:34:01.414Z,4.37
2019-03-09T05:36:01.522Z,4.53
2019-03-09T05:38:01.329Z,3.93
2019-03-09T05:40:01.443Z,4.93
2019-03-09T05:42:01.358Z,5.01
2019-03-09T05:44:01.232Z,4.14
2019-03-09T05:46:01.278Z,3.20
2019-03-09T05:48:01.210Z,3.40
2019-03-09T05:50:01.708Z,3.23
2019-03-09T05:52:01.451Z,4.89
2019-03-09T05:54:01.406Z,4.35
2019-03-09T05:56:01.343Z,4.04
2019-03-09T05:58:01.652Z,4.16
2019-03-09T06:00:01.460Z,4.47
2019-03-09T06:02:01.375Z,2.50
2019-03-09T06:04:01.586Z,2.37
2019-03-09T06:06:01.296Z,2.20
2019-03-09T06:08:01.282Z,2.84
2019-03-09T06:10:01.721Z,2.39
2019-03-09T06:12:01.528Z,3.62
2019-03-09T06:14:01.447Z,2.25
2019-03-09T06:16:01.455Z,2.55
2019-03-09T06:18:01.358Z,2.00
2019-03-09T06:20:01.473Z,3.09
2019-03-09T06:22:01.488Z,2.50
2019-03-09T06:24:01.316Z,3.62
2019-03-09T06:26:01.307Z,2.05
2019-03-09T06:28:01.579Z,2.28
2019-03-09T06:30:01.426Z,2.45
2019-03-09T06:32:01.324Z,2.46
2019-03-09T06:34:01.666Z,1.27
2019-03-09T06:36:01.472Z,2.16
2019-03-09T06:38:01.478Z,2.11
2019-03-09T06:40:01.801Z,3.21
2019-03-09T06:42:01.707Z,1.42
2019-03-09T06:44:01.332Z,1.27
2019-03-09T06:46:01.294Z,1.92
2019-03-09T06:48:01.437Z,1.77
2019-03-09T06:50:01.445Z,1.46
2019-03-09T06:52:01.553Z,1.89
2019-03-09T06:54:01.466Z,2.40
2019-03-09T06:56:01.485Z,1.38
2019-03-09T06:58:01.489Z,1.46
2019-03-09T07:00:01.422Z,1.79
2019-03-09T07:02:01.510Z,1.29
2019-03-09T07:04:01.319Z,1.91
2019-03-09T07:06:01.414Z,1.30
2019-03-09T07:08:01.546Z,1.35
2019-03-09T07:10:01.339Z,2.32
2019-03-09T07:12:01.314Z,1.20
2019-03-09T07:14:01.472Z,1.36
2019-03-09T07:16:01.337Z,1.20
2019-03-09T07:18:01.736Z,1.32
2019-03-09T07:20:11.979Z,1.37
2019-03-09T07:22:01.418Z,1.05
2019-03-09T07:24:01.746Z,1.82
2019-03-09T07:26:01.968Z,2.11
2019-03-09T07:28:01.338Z,1.70
2019-03-09T07:30:01.269Z,2.13
2019-03-09T07:32:01.378Z,1.33
2019-03-09T07:34:01.295Z,1.95
2019-03-09T07:36:01.609Z,1.39
2019-03-09T07:38:01.505Z,1.32
2019-03-09T07:40:01.636Z,2.53
2019-03-09T07:42:01.508Z,2.13
2019-03-09T07:44:01.653Z,3.25
2019-03-09T07:46:01.419Z,1.54
2019-03-09T07:48:01.469Z,3.50
2019-03-09T07:50:01.380Z,2.10
2019-03-09T07:52:01.395Z,1.34
2019-03-09T07:54:01.508Z,0.98
2019-03-09T07:56:01.722Z,2.42
2019-03-09T07:58:01.447Z,2.03
2019-03-09T08:00:01.660Z,1.92
2019-03-09T08:02:01.446Z,2.54
2019-03-09T08:04:01.458Z,2.63
2019-03-09T08:06:01.605Z,2.01
2019-03-09T08:08:01.614Z,2.63
2019-03-09T08:10:01.433Z,2.58
2019-03-09T08:12:01.319Z,2.16
2019-03-09T08:14:01.618Z,2.49
2019-03-09T08:16:01.450Z,2.43
2019-03-09T08:18:01.543Z,1.92
2019-03-09T08:20:01.567Z,2.97
2019-03-09T08:22:01.863Z,2.58
2019-03-09T08:24:01.662Z,2.42
2019-03-09T08:26:01.503Z,1.48
2019-03-09T08:28:01.605Z,1.81
2019-03-09T08:30:02.427Z,2.29
2019-03-09T08:32:01.647Z,0.60
2019-03-09T08:34:01.414Z,1.51
2019-03-09T08:36:01.436Z,1.32
2019-03-09T08:38:01.465Z,1.98
2019-03-09T08:40:01.785Z,3.91
2019-03-09T08:42:01.687Z,1.45
2019-03-09T08:44:01.596Z,3.06
2019-03-09T08:46:01.745Z,2.71
2019-03-09T08:48:01.721Z,1.98
2019-03-09T08:50:01.623Z,3.33
2019-03-09T08:52:01.670Z,2.41
2019-03-09T08:54:01.654Z,2.40
2019-03-09T08:56:01.650Z,3.26
2019-03-09T08:58:01.739Z,2.56
2019-03-09T09:00:01.960Z,2.70
2019-03-09T09:02:01.590Z,2.35
2019-03-09T09:04:01.615Z,2.62
2019-03-09T09:06:01.627Z,1.89
2019-03-09T09:08:03.622Z,3.03
2019-03-09T09:10:01.518Z,3.34
2019-03-09T09:12:01.658Z,3.70
2019-03-09T09:14:01.668Z,3.18
2019-03-09T09:16:01.678Z,3.00
2019-03-09T09:18:01.488Z,3.76
2019-03-09T09:20:01.909Z,3.38
2019-03-09T09:22:01.713Z,2.12
2019-03-09T09:24:01.519Z,1.89
2019-03-09T09:26:01.736Z,3.30
2019-03-09T09:28:01.537Z,3.24
2019-03-09T09:30:01.559Z,2.99
2019-03-09T09:32:01.577Z,4.81
2019-03-09T09:34:01.818Z,3.59
2019-03-09T09:36:01.690Z,2.34
2019-03-09T09:38:01.704Z,3.35
2019-03-09T09:40:01.544Z,2.92
2019-03-09T09:42:01.615Z,4.49
2019-03-09T09:44:01.739Z,2.67
2019-03-09T09:46:02.061Z,2.47
2019-03-09T09:48:01.875Z,2.71
2019-03-09T09:50:01.532Z,3.55
2019-03-09T09:52:01.686Z,3.34
2019-03-09T09:54:01.698Z,3.07
2019-03-09T09:56:01.705Z,3.31
2019-03-09T09:58:01.578Z,2.28
2019-03-09T10:00:01.736Z,3.53
2019-03-09T10:02:01.762Z,2.84
2019-03-09T10:04:01.414Z,4.05
2019-03-09T10:06:01.562Z,3.12
2019-03-09T10:08:01.776Z,2.16
2019-03-09T10:10:01.614Z,2.72
2019-03-09T10:12:01.721Z,3.17
2019-03-09T10:14:01.605Z,3.46
2019-03-09T10:16:01.717Z,2.85
2019-03-09T10:18:01.634Z,4.01
2019-03-09T10:20:01.575Z,3.14
2019-03-09T10:22:01.855Z,3.03
2019-03-09T10:24:01.718Z,2.85
2019-03-09T10:26:01.778Z,2.87
2019-03-09T10:28:01.652Z,4.87
2019-03-09T10:30:01.721Z,4.12
2019-03-09T10:32:01.606Z,4.64
2019-03-09T10:34:01.646Z,5.40
2019-03-09T10:36:01.631Z,2.86
2019-03-09T10:38:01.853Z,4.76
2019-03-09T10:40:01.655Z,3.53
2019-03-09T10:42:01.612Z,4.21
2019-03-09T10:44:01.683Z,3.86
2019-03-09T10:46:01.677Z,3.52
2019-03-09T10:48:01.696Z,4.42
2019-03-09T10:50:01.833Z,5.29
2019-03-09T10:52:01.722Z,5.02
2019-03-09T10:54:01.943Z,4.49
2019-03-09T10:56:01.904Z,4.50
2019-03-09T10:58:01.862Z,4.42
2019-03-09T11:00:01.800Z,2.90
2019-03-09T11:02:01.783Z,5.24
2019-03-09T11:04:01.695Z,3.32
2019-03-09T11:06:01.697Z,5.22
2019-03-09T11:08:01.709Z,3.63
2019-03-09T11:10:01.833Z,4.48
2019-03-09T11:12:01.877Z,5.24
2019-03-09T11:14:01.759Z,4.35
2019-03-09T11:16:01.692Z,4.25
2019-03-09T11:18:01.765Z,3.63
2019-03-09T11:20:01.898Z,4.35
2019-03-09T11:22:01.942Z,2.83
2019-03-09T11:24:01.829Z,5.33
2019-03-09T11:26:01.619Z,2.65
2019-03-09T11:28:01.942Z,3.71
2019-03-09T11:30:01.764Z,2.81
2019-03-09T11:32:01.751Z,2.18
2019-03-09T11:34:01.663Z,2.39
2019-03-09T11:36:01.827Z,4.56
2019-03-09T11:38:01.678Z,3.29
2019-03-09T11:40:01.753Z,5.03
2019-03-09T11:42:02.012Z,5.34
2019-03-09T11:44:01.924Z,4.60
2019-03-09T11:46:02.243Z,5.05
2019-03-09T11:48:01.696Z,2.52
2019-03-09T11:50:01.753Z,4.27
2019-03-09T11:52:01.978Z,3.84
2019-03-09T11:54:01.786Z,4.89
2019-03-09T11:56:01.796Z,6.06
2019-03-09T11:58:01.798Z,4.07
2019-03-09T12:00:01.771Z,3.28
2019-03-09T12:02:01.860Z,5.04
2019-03-09T12:04:01.624Z,4.10
2019-03-09T12:06:01.785Z,4.16
2019-03-09T12:08:01.870Z,5.54
2019-03-09T12:10:01.975Z,5.36
2019-03-09T12:12:01.880Z,4.00
2019-03-09T12:14:01.895Z,3.78
2019-03-09T12:16:01.671Z,3.28
2019-03-09T12:18:01.811Z,3.10
2019-03-09T12:20:01.935Z,2.48
2019-03-09T12:22:01.841Z,5.31
2019-03-09T12:24:01.856Z,3.76
2019-03-09T12:26:01.982Z,3.90
2019-03-09T12:28:01.665Z,3.98
2019-03-09T12:30:03.898Z,3.65
2019-03-09T12:32:01.898Z,7.52
2019-03-09T12:34:01.901Z,4.41
2019-03-09T12:36:01.807Z,4.69
2019-03-09T12:38:01.810Z,5.49
2019-03-09T12:40:02.160Z,4.20
2019-03-09T12:42:02.154Z,4.81
2019-03-09T12:44:01.968Z,5.89
2019-03-09T12:46:01.845Z,5.28
2019-03-09T12:48:01.897Z,4.33
2019-03-09T12:50:01.893Z,4.61
2019-03-09T12:52:01.886Z,3.28
2019-03-09T12:54:01.924Z,3.87
2019-03-09T12:56:01.899Z,4.98
2019-03-09T12:58:01.917Z,4.90
2019-03-09T13:00:01.907Z,5.38
2019-03-09T13:02:01.913Z,4.21
2019-03-09T13:04:01.936Z,5.58
2019-03-09T13:06:02.090Z,5.66
2019-03-09T13:08:01.896Z,2.95
2019-03-09T13:10:01.911Z,3.35
2019-03-09T13:12:02.255Z,5.11
2019-03-09T13:14:01.879Z,6.28
2019-03-09T13:16:01.953Z,6.32
2019-03-09T13:18:02.370Z,6.00
2019-03-09T13:20:01.761Z,4.08
2019-03-09T13:22:01.981Z,4.64
2019-03-09T13:24:01.903Z,5.25
2019-03-09T13:26:01.892Z,6.21
2019-03-09T13:28:01.945Z,5.30
2019-03-09T13:30:01.965Z,6.80
2019-03-09T13:32:02.041Z,5.80
2019-03-09T13:34:01.886Z,4.66
2019-03-09T13:36:02.099Z,5.31
2019-03-09T13:38:01.970Z,6.26
2019-03-09T13:40:02.013Z,7.76
2019-03-09T13:42:01.921Z,4.84
2019-03-09T13:44:01.899Z,5.05
2019-03-09T13:46:01.991Z,5.87
2019-03-09T13:48:02.037Z,5.19
2019-03-09T13:50:01.678Z,4.76
2019-03-09T13:52:01.740Z,3.87
2019-03-09T13:54:02.074Z,4.94
2019-03-09T13:56:02.183Z,5.90
2019-03-09T13:58:01.994Z,4.79
2019-03-09T14:00:02.010Z,4.94
2019-03-09T14:02:02.036Z,5.51
2019-03-09T14:04:01.812Z,5.49
2019-03-09T14:06:02.033Z,5.49
2019-03-09T14:08:02.044Z,5.84
2019-03-09T14:10:01.970Z,5.15
2019-03-09T14:12:01.960Z,5.41
2019-03-09T14:14:02.387Z,5.30
2019-03-09T14:16:01.767Z,6.47
2019-03-09T14:18:02.001Z,6.48
2019-03-09T14:20:01.913Z,5.99
2019-03-09T14:22:01.953Z,4.81
2019-03-09T14:24:01.952Z,5.72
2019-03-09T14:26:02.002Z,3.60
2019-03-09T14:28:01.998Z,5.88
2019-03-09T14:30:01.804Z,3.39
2019-03-09T14:32:01.935Z,4.66
2019-03-09T14:34:01.740Z,6.06
2019-03-09T14:36:01.793Z,4.46
2019-03-09T14:38:02.112Z,5.49
2019-03-09T14:40:02.035Z,4.63
2019-03-09T14:42:01.979Z,3.98
2019-03-09T14:44:01.977Z,4.63
2019-03-09T14:46:01.721Z,3.74
2019-03-09T14:48:01.979Z,5.71
2019-03-09T14:50:02.287Z,5.72
2019-03-09T14:52:02.298Z,4.95
2019-03-09T14:54:01.911Z,4.79
2019-03-09T14:56:02.123Z,4.90
2019-03-09T14:58:02.032Z,6.26
2019-03-09T15:00:02.139Z,5.61
2019-03-09T15:02:02.071Z,5.83
2019-03-09T15:04:02.133Z,4.95
2019-03-09T15:06:02.107Z,5.86
2019-03-09T15:08:01.787Z,5.69
2019-03-09T15:10:01.958Z,4.24
2019-03-09T15:12:02.223Z,5.12
2019-03-09T15:14:02.043Z,4.56
2019-03-09T15:16:01.918Z,5.69
2019-03-09T15:18:02.349Z,4.45
2019-03-09T15:20:02.160Z,5.13
2019-03-09T15:22:02.080Z,4.85
2019-03-09T15:24:01.964Z,5.34
2019-03-09T15:26:02.088Z,5.45
2019-03-09T15:28:02.001Z,5.28
2019-03-09T15:30:02.528Z,4.19
2019-03-09T15:32:02.127Z,4.96
2019-03-09T15:34:01.877Z,6.67
2019-03-09T15:36:02.152Z,4.46
2019-03-09T15:38:02.062Z,5.32
2019-03-09T15:40:02.448Z,5.90
2019-03-09T15:42:01.993Z,5.87
2019-03-09T15:44:02.012Z,5.25
2019-03-09T15:46:02.107Z,6.67
2019-03-09T15:48:02.223Z,4.34
2019-03-09T15:50:02.022Z,5.68
2019-03-09T15:52:02.149Z,6.24
2019-03-09T15:54:02.563Z,4.05
2019-03-09T15:56:02.167Z,3.72
2019-03-09T15:58:01.867Z,5.10
2019-03-09T16:00:02.112Z,4.61
2019-03-09T16:02:02.504Z,5.83
2019-03-09T16:04:02.168Z,4.64
2019-03-09T16:06:02.634Z,5.83
2019-03-09T16:08:02.545Z,2.65
2019-03-09T16:10:02.141Z,3.94
2019-03-09T16:12:02.099Z,4.16
2019-03-09T16:14:02.079Z,5.08
2019-03-09T16:16:01.843Z,4.66
2019-03-09T16:18:02.605Z,6.14
2019-03-09T16:20:02.529Z,3.49
2019-03-09T16:22:02.216Z,6.42
2019-03-09T16:24:02.636Z,5.49
2019-03-09T16:26:02.604Z,7.28
2019-03-09T16:28:02.461Z,7.15
2019-03-09T16:30:02.188Z,5.29
2019-03-09T16:32:02.484Z,6.90
2019-03-09T16:34:02.593Z,9.09
2019-03-09T16:36:01.990Z,6.36
2019-03-09T16:38:02.520Z,8.11
2019-03-09T16:40:02.576Z,5.89
2019-03-09T16:42:02.535Z,3.68
2019-03-09T16:44:02.548Z,5.27
2019-03-09T16:46:02.148Z,6.16
2019-03-09T16:48:02.569Z,4.41
2019-03-09T16:50:02.373Z,4.12
2019-03-09T16:52:01.982Z,3.59
2019-03-09T16:54:02.079Z,4.79
2019-03-09T16:56:02.141Z,5.73
2019-03-09T16:58:02.131Z,6.20
2019-03-09T17:00:02.128Z,6.70
2019-03-09T17:02:02.148Z,6.34
2019-03-09T17:04:02.559Z,6.51
2019-03-09T17:06:02.109Z,5.70
2019-03-09T17:08:02.489Z,4.93
2019-03-09T17:10:02.598Z,5.10
2019-03-09T17:12:02.609Z,6.22
2019-03-09T17:14:02.723Z,4.60
2019-03-09T17:16:02.395Z,5.24
2019-03-09T17:18:02.434Z,5.05
2019-03-09T17:20:02.346Z,5.45
2019-03-09T17:22:02.254Z,5.06
2019-03-09T17:24:02.583Z,5.26
2019-03-09T17:26:02.180Z,4.82
2019-03-09T17:28:02.561Z,5.86
2019-03-09T17:30:02.304Z,6.08
2019-03-09T17:32:02.617Z,5.40
2019-03-09T17:34:02.398Z,5.57
2019-03-09T17:36:02.055Z,5.43
2019-03-09T17:38:02.346Z,4.75
2019-03-09T17:40:02.358Z,4.52
2019-03-09T17:42:02.496Z,5.26
2019-03-09T17:44:02.290Z,4.95
2019-03-09T17:46:03.010Z,5.39
2019-03-09T17:48:02.206Z,4.74
2019-03-09T17:50:02.118Z,6.28
2019-03-09T17:52:02.230Z,5.89
2019-03-09T17:54:02.243Z,3.02
2019-03-09T17:56:02.452Z,5.03
2019-03-09T17:58:02.037Z,5.09
2019-03-09T18:00:02.296Z,6.15
2019-03-09T18:02:02.490Z,6.14
2019-03-09T18:04:02.409Z,3.52
2019-03-09T18:06:02.208Z,6.92
2019-03-09T18:08:02.420Z,7.00
2019-03-09T18:10:02.187Z,5.30
2019-03-09T18:12:02.650Z,4.86
2019-03-09T18:14:07.054Z,3.39
2019-03-09T18:16:02.054Z,2.98
2019-03-09T18:18:02.279Z,4.31
2019-03-09T18:20:02.165Z,5.76
2019-03-09T18:22:02.704Z,5.13
2019-03-09T18:24:02.511Z,4.06
2019-03-09T18:26:02.232Z,3.56
2019-03-09T18:28:02.397Z,3.86
2019-03-09T18:30:02.347Z,2.84
2019-03-09T18:32:02.260Z,2.46
2019-03-09T18:34:02.264Z,3.79
2019-03-09T18:36:02.796Z,3.97
2019-03-09T18:38:02.410Z,4.70
2019-03-09T18:40:02.354Z,3.45
2019-03-09T18:42:02.204Z,3.78
2019-03-09T18:44:02.530Z,4.51
2019-03-09T18:46:02.541Z,3.87
2019-03-09T18:48:02.865Z,3.64
2019-03-09T18:50:02.465Z,2.27
2019-03-09T18:52:02.248Z,4.14
2019-03-09T18:54:02.488Z,2.29
2019-03-09T18:56:02.437Z,3.90
2019-03-09T18:58:02.506Z,2.80
2019-03-09T19:00:02.539Z,4.57
2019-03-09T19:02:02.391Z,3.17
2019-03-09T19:04:03.061Z,2.77
2019-03-09T19:06:02.655Z,4.84
2019-03-09T19:08:02.533Z,3.19
2019-03-09T19:10:02.325Z,2.10
2019-03-09T19:12:02.601Z,4.73
2019-03-09T19:14:02.600Z,3.58
2019-03-09T19:16:02.528Z,3.79
2019-03-09T19:18:02.411Z,2.98
2019-03-09T19:20:02.540Z,2.76
2019-03-09T19:22:02.542Z,2.63
2019-03-09T19:24:02.362Z,2.21
2019-03-09T19:26:02.315Z,4.29
2019-03-09T19:28:02.579Z,1.60
2019-03-09T19:30:02.597Z,2.28
2019-03-09T19:32:02.404Z,1.62
2019-03-09T19:34:02.124Z,2.89
2019-03-09T19:36:02.521Z,2.19
2019-03-09T19:38:02.237Z,3.07
2019-03-09T19:40:02.338Z,3.07
2019-03-09T19:42:02.557Z,2.79
2019-03-09T19:44:05.205Z,2.53
2019-03-09T19:46:02.689Z,2.08
2019-03-09T19:48:02.596Z,2.00
2019-03-09T19:50:02.618Z,1.55
2019-03-09T19:52:02.399Z,1.42
2019-03-09T19:54:02.636Z,0.18
2019-03-09T19:56:02.234Z,0.67
2019-03-09T19:58:02.755Z,0.98
2019-03-09T20:00:02.187Z,1.10
2019-03-09T20:02:02.432Z,1.71
2019-03-09T20:04:02.299Z,1.62
2019-03-09T20:06:02.707Z,1.08
2019-03-09T20:08:02.349Z,1.86
2019-03-09T20:10:02.422Z,1.61
2019-03-09T20:12:02.560Z,1.33
2019-03-09T20:14:02.455Z,1.35
2019-03-09T20:16:02.608Z,2.17
2019-03-09T20:18:02.768Z,2.02
2019-03-09T20:20:02.589Z,0.91
2019-03-09T20:22:02.280Z,0.68
2019-03-09T20:24:02.203Z,1.13
2019-03-09T20:26:02.558Z,0.96
2019-03-09T20:28:02.414Z,1.31
2019-03-09T20:30:05.413Z,1.30
2019-03-09T20:32:02.442Z,1.07
2019-03-09T20:34:02.654Z,0.51
2019-03-09T20:36:02.777Z,0.07
2019-03-09T20:38:02.431Z,0.10
2019-03-09T20:40:02.691Z,0.66
2019-03-09T20:42:02.602Z,0.59
2019-03-09T20:44:02.307Z,1.30
2019-03-09T20:46:02.730Z,0.54
2019-03-09T20:48:02.569Z,0.41
2019-03-09T20:50:02.548Z,0.51
2019-03-09T20:52:02.432Z,0.15
2019-03-09T20:54:02.644Z,0.56
2019-03-09T20:56:02.276Z,0.69
2019-03-09T20:58:02.391Z,0.11
2019-03-09T21:00:02.410Z,0.19
2019-03-09T21:02:02.318Z,0.33
2019-03-09T21:04:02.444Z,0.07
2019-03-09T21:06:02.335Z,0.25
2019-03-09T21:08:02.342Z,0.53
2019-03-09T21:10:02.558Z,0.44
2019-03-09T21:12:02.474Z,1.42
2019-03-09T21:14:02.416Z,0.30
2019-03-09T21:16:02.633Z,0.75
2019-03-09T21:18:02.717Z,0.24
2019-03-09T21:20:02.426Z,0.64
2019-03-09T21:22:02.331Z,0.80
2019-03-09T21:24:02.343Z,0.53
2019-03-09T21:26:02.552Z,0.39
2019-03-09T21:28:02.563Z,0.35
2019-03-09T21:30:02.583Z,1.52
2019-03-09T21:32:02.379Z,1.21
2019-03-09T21:34:02.319Z,0.00
2019-03-09T21:36:02.324Z,0.40
2019-03-09T21:38:02.332Z,0.56
2019-03-09T21:40:02.432Z,1.13
2019-03-09T21:42:02.333Z,1.13
2019-03-09T21:44:02.460Z,0.68
2019-03-09T21:46:02.413Z,0.92
2019-03-09T21:48:02.415Z,1.28
2019-03-09T21:50:02.385Z,1.16
2019-03-09T21:52:02.508Z,1.77
2019-03-09T21:54:02.614Z,0.27
2019-03-09T21:56:02.528Z,0.72
2019-03-09T21:58:02.659Z,0.91
2019-03-09T22:00:02.552Z,1.51
2019-03-09T22:02:02.447Z,2.20
2019-03-09T22:04:02.251Z,1.96
2019-03-09T22:06:06.158Z,2.40
2019-03-09T22:08:02.472Z,0.55
2019-03-09T22:10:02.504Z,1.38
2019-03-09T22:12:02.620Z,0.25
2019-03-09T22:14:02.421Z,0.78
2019-03-09T22:16:02.322Z,0.48
2019-03-09T22:18:02.568Z,0.31
2019-03-09T22:20:02.558Z,1.38
2019-03-09T22:22:02.409Z,0.66
2019-03-09T22:24:02.492Z,1.62
2019-03-09T22:26:02.371Z,1.57
2019-03-09T22:28:02.529Z,1.02
2019-03-09T22:30:02.514Z,3.64
2019-03-09T22:32:02.526Z,2.21
2019-03-09T22:34:02.471Z,1.29
2019-03-09T22:36:02.555Z,1.95
2019-03-09T22:38:02.497Z,0.71
2019-03-09T22:40:02.793Z,1.77
2019-03-09T22:42:02.585Z,0.60
2019-03-09T22:44:02.471Z,0.11
2019-03-09T22:46:02.606Z,0.38
2019-03-09T22:48:02.531Z,0.46
2019-03-09T22:50:02.430Z,0.53
2019-03-09T22:52:02.751Z,0.34
2019-03-09T22:54:02.565Z,0.90
2019-03-09T22:56:02.582Z,0.01
2019-03-09T22:58:02.676Z,0.59
2019-03-09T23:00:02.485Z,0.54
2019-03-09T23:02:02.501Z,1.07
2019-03-09T23:04:02.307Z,0.44
2019-03-09T23:06:02.528Z,0.74
2019-03-09T23:08:02.541Z,0.56
2019-03-09T23:10:02.548Z,0.02
2019-03-09T23:12:02.761Z,0.64
2019-03-09T23:14:02.484Z,0.25
2019-03-09T23:16:02.378Z,0.64
2019-03-09T23:18:02.590Z,0.39
2019-03-09T23:20:02.612Z,0.00
2019-03-09T23:22:02.612Z,0.35
2019-03-09T23:24:02.404Z,0.02
2019-03-09T23:26:02.632Z,0.65
2019-03-09T23:28:02.526Z,0.84
2019-03-09T23:30:02.768Z,0.03
2019-03-09T23:32:02.573Z,0.29
2019-03-09T23:34:02.542Z,0.92
2019-03-09T23:36:02.596Z,0.38
2019-03-09T23:38:02.612Z,0.05
2019-03-09T23:40:02.619Z,0.10
2019-03-09T23:42:02.569Z,0.07
2019-03-09T23:44:02.688Z,0.65
2019-03-09T23:46:02.702Z,0.77
2019-03-09T23:48:02.558Z,0.41
2019-03-09T23:50:02.481Z,0.30
2019-03-09T23:52:02.532Z,0.18
2019-03-09T23:54:02.557Z,0.15
2019-03-09T23:56:02.618Z,0.45
2019-03-09T23:58:02.646Z,0.45
